sensor_id;sensor_type;location;lat;lon;timestamp;pressure;altitude;pressure_sealevel;temperature;humidity
23619;BME280;18207;32.078;34.818;2022-11-20T00:01:44;101736.78;;;26.34;33.92
23619;BME280;18207;32.078;34.818;2022-11-20T00:04:15;101740.75;;;26.33;33.71
23619;BME280;18207;32.078;34.818;2022-11-20T00:06:45;101735.13;;;26.33;33.96
23619;BME280;18207;32.078;34.818;2022-11-20T00:09:17;101739.13;;;26.32;33.75
23619;BME280;18207;32.078;34.818;2022-11-20T00:11:47;101733.47;;;26.32;33.91
23619;BME280;18207;32.078;34.818;2022-11-20T00:14:19;101738.63;;;26.30;33.85
23619;BME280;18207;32.078;34.818;2022-11-20T00:16:51;101730.53;;;26.29;33.84
23619;BME280;18207;32.078;34.818;2022-11-20T00:19:21;101728.91;;;26.28;34.11
23619;BME280;18207;32.078;34.818;2022-11-20T00:21:51;101730.91;;;26.27;33.84
23619;BME280;18207;32.078;34.818;2022-11-20T00:24:23;101730.91;;;26.27;33.94
23619;BME280;18207;32.078;34.818;2022-11-20T00:26:54;101734.06;;;26.26;33.96
23619;BME280;18207;32.078;34.818;2022-11-20T00:29:24;101725.13;;;26.24;33.75
23619;BME280;18207;32.078;34.818;2022-11-20T00:31:57;101731.94;;;26.23;33.67
23619;BME280;18207;32.078;34.818;2022-11-20T00:34:27;101735.09;;;26.21;33.71
23619;BME280;18207;32.078;34.818;2022-11-20T00:36:58;101735.09;;;26.21;33.89
23619;BME280;18207;32.078;34.818;2022-11-20T00:39:30;101735.94;;;26.22;34.10
23619;BME280;18207;32.078;34.818;2022-11-20T00:42:01;101742.75;;;26.21;33.99
23619;BME280;18207;32.078;34.818;2022-11-20T00:44:31;101748.38;;;26.21;33.99
23619;BME280;18207;32.078;34.818;2022-11-20T00:47:03;101745.56;;;26.21;34.03
23619;BME280;18207;32.078;34.818;2022-11-20T00:49:34;101753.19;;;26.20;33.86
23619;BME280;18207;32.078;34.818;2022-11-20T00:52:04;101744.28;;;26.18;33.91
23619;BME280;18207;32.078;34.818;2022-11-20T00:54:37;101747.09;;;26.18;33.78
23619;BME280;18207;32.078;34.818;2022-11-20T00:57:10;101747.78;;;26.15;33.98
23619;BME280;18207;32.078;34.818;2022-11-20T00:59:40;101745.31;;;26.14;34.09
23619;BME280;18207;32.078;34.818;2022-11-20T01:02:13;101741.66;;;26.13;33.77
23619;BME280;18207;32.078;34.818;2022-11-20T01:04:44;101741.19;;;26.11;33.76
23619;BME280;18207;32.078;34.818;2022-11-20T01:07:15;101742.34;;;26.10;33.92
23619;BME280;18207;32.078;34.818;2022-11-20T01:09:45;101736.59;;;26.07;33.86
23619;BME280;18207;32.078;34.818;2022-11-20T01:12:16;101731.31;;;26.05;34.10
23619;BME280;18207;32.078;34.818;2022-11-20T01:14:58;101730.84;;;26.03;33.75
23619;BME280;18207;32.078;34.818;2022-11-20T01:17:31;101731.22;;;26.02;33.76
23619;BME280;18207;32.078;34.818;2022-11-20T01:20:02;101738.34;;;25.99;33.80
23619;BME280;18207;32.078;34.818;2022-11-20T01:22:33;101727.44;;;25.98;33.94
23619;BME280;18207;32.078;34.818;2022-11-20T01:25:05;101734.59;;;25.96;33.70
23619;BME280;18207;32.078;34.818;2022-11-20T01:27:35;101732.94;;;25.95;33.70
23619;BME280;18207;32.078;34.818;2022-11-20T01:30:07;101733.31;;;25.93;33.74
23619;BME280;18207;32.078;34.818;2022-11-20T01:32:39;101742.56;;;25.94;33.61
23619;BME280;18207;32.078;34.818;2022-11-20T01:35:09;101734.47;;;25.92;34.06
23619;BME280;18207;32.078;34.818;2022-11-20T01:37:39;101730.00;;;25.91;33.99
23619;BME280;18207;32.078;34.818;2022-11-20T01:40:11;101728.00;;;25.92;33.75
23619;BME280;18207;32.078;34.818;2022-11-20T01:43:09;101731.97;;;25.91;33.94
23619;BME280;18207;32.078;34.818;2022-11-20T01:46:15;101728.22;;;25.87;33.76
23619;BME280;18207;32.078;34.818;2022-11-20T01:48:54;101738.66;;;25.86;33.93
23619;BME280;18207;32.078;34.818;2022-11-20T01:51:34;101737.38;;;25.84;33.88
23619;BME280;18207;32.078;34.818;2022-11-20T01:54:11;101736.88;;;25.82;33.76
23619;BME280;18207;32.078;34.818;2022-11-20T01:56:48;101734.44;;;25.80;33.78
23619;BME280;18207;32.078;34.818;2022-11-20T01:59:24;101740.41;;;25.79;33.57
23619;BME280;18207;32.078;34.818;2022-11-20T02:01:57;101738.41;;;25.79;33.85
23619;BME280;18207;32.078;34.818;2022-11-20T02:04:29;101736.75;;;25.78;33.72
23619;BME280;18207;32.078;34.818;2022-11-20T02:07:02;101736.75;;;25.78;33.69
23619;BME280;18207;32.078;34.818;2022-11-20T02:09:36;101741.22;;;25.79;33.95
23619;BME280;18207;32.078;34.818;2022-11-20T02:12:07;101742.03;;;25.80;33.72
23619;BME280;18207;32.078;34.818;2022-11-20T02:14:58;101733.59;;;25.80;34.01
23619;BME280;18207;32.078;34.818;2022-11-20T02:17:28;101732.78;;;25.79;33.71
23619;BME280;18207;32.078;34.818;2022-11-20T02:20:01;101726.34;;;25.79;33.71
23619;BME280;18207;32.078;34.818;2022-11-20T02:22:41;101729.47;;;25.77;33.84
23619;BME280;18207;32.078;34.818;2022-11-20T02:25:17;101727.00;;;25.76;33.86
23619;BME280;18207;32.078;34.818;2022-11-20T02:27:50;101720.88;;;25.74;33.87
23619;BME280;18207;32.078;34.818;2022-11-20T02:30:22;101715.59;;;25.72;33.76
23619;BME280;18207;32.078;34.818;2022-11-20T02:32:53;101714.75;;;25.72;34.07
23619;BME280;18207;32.078;34.818;2022-11-20T02:35:45;101714.16;;;25.66;33.60
23619;BME280;18207;32.078;34.818;2022-11-20T02:38:18;101725.66;;;25.61;33.90
23619;BME280;18207;32.078;34.818;2022-11-20T02:40:52;101729.00;;;25.55;33.88
23619;BME280;18207;32.078;34.818;2022-11-20T02:43:23;101726.44;;;25.50;33.50
23619;BME280;18207;32.078;34.818;2022-11-20T02:45:56;101729.09;;;25.46;33.84
23619;BME280;18207;32.078;34.818;2022-11-20T02:48:26;101734.59;;;25.43;33.94
23619;BME280;18207;32.078;34.818;2022-11-20T02:51:01;101734.47;;;25.39;33.72
23619;BME280;18207;32.078;34.818;2022-11-20T02:53:32;101737.13;;;25.36;33.97
23619;BME280;18207;32.078;34.818;2022-11-20T02:56:07;101740.63;;;25.33;33.74
23619;BME280;18207;32.078;34.818;2022-11-20T02:58:37;101736.88;;;25.29;33.85
23619;BME280;18207;32.078;34.818;2022-11-20T03:01:08;101745.63;;;25.27;33.90
23619;BME280;18207;32.078;34.818;2022-11-20T03:03:39;101743.19;;;25.26;33.80
23619;BME280;18207;32.078;34.818;2022-11-20T03:06:10;101744.34;;;25.25;33.98
23619;BME280;18207;32.078;34.818;2022-11-20T03:08:41;101736.59;;;25.22;33.59
23619;BME280;18207;32.078;34.818;2022-11-20T03:11:14;101732.13;;;25.21;33.90
23619;BME280;18207;32.078;34.818;2022-11-20T03:13:45;101734.00;;;25.17;33.78
23619;BME280;18207;32.078;34.818;2022-11-20T03:16:20;101736.31;;;25.15;33.81
23619;BME280;18207;32.078;34.818;2022-11-20T03:18:53;101740.28;;;25.14;33.97
23619;BME280;18207;32.078;34.818;2022-11-20T03:21:23;101741.47;;;25.13;33.78
23619;BME280;18207;32.078;34.818;2022-11-20T03:23:54;101743.59;;;25.16;33.62
23619;BME280;18207;32.078;34.818;2022-11-20T03:26:27;101744.88;;;25.18;33.89
23619;BME280;18207;32.078;34.818;2022-11-20T03:29:01;101754.63;;;25.21;34.04
23619;BME280;18207;32.078;34.818;2022-11-20T03:31:34;101759.09;;;25.22;33.88
23619;BME280;18207;32.078;34.818;2022-11-20T03:34:05;101758.78;;;25.23;33.81
23619;BME280;18207;32.078;34.818;2022-11-20T03:36:38;101754.44;;;25.26;33.66
23619;BME280;18207;32.078;34.818;2022-11-20T03:39:09;101756.91;;;25.27;33.56
23619;BME280;18207;32.078;34.818;2022-11-20T03:41:42;101761.84;;;25.30;33.85
23619;BME280;18207;32.078;34.818;2022-11-20T03:44:13;101764.31;;;25.32;33.78
23619;BME280;18207;32.078;34.818;2022-11-20T03:46:43;101753.06;;;25.32;33.98
23619;BME280;18207;32.078;34.818;2022-11-20T03:49:15;101761.19;;;25.33;33.70
23619;BME280;18207;32.078;34.818;2022-11-20T03:51:46;101764.00;;;25.33;33.88
23619;BME280;18207;32.078;34.818;2022-11-20T03:54:16;101764.00;;;25.33;33.77
23619;BME280;18207;32.078;34.818;2022-11-20T03:56:49;101767.63;;;25.34;33.68
23619;BME280;18207;32.078;34.818;2022-11-20T03:59:20;101762.34;;;25.32;33.78
23619;BME280;18207;32.078;34.818;2022-11-20T04:01:50;101764.66;;;25.30;33.68
23619;BME280;18207;32.078;34.818;2022-11-20T04:04:20;101768.63;;;25.29;33.46
23619;BME280;18207;32.078;34.818;2022-11-20T04:06:51;101763.69;;;25.26;33.68
23619;BME280;18207;32.078;34.818;2022-11-20T04:09:22;101762.75;;;25.22;33.46
23619;BME280;18207;32.078;34.818;2022-11-20T04:11:53;101762.63;;;25.19;33.61
23619;BME280;18207;32.078;34.818;2022-11-20T04:14:24;101763.28;;;25.16;33.63
23619;BME280;18207;32.078;34.818;2022-11-20T04:16:54;101750.75;;;25.13;33.56
23619;BME280;18207;32.078;34.818;2022-11-20T04:19:24;101749.91;;;25.13;33.74
23619;BME280;18207;32.078;34.818;2022-11-20T04:21:55;101754.72;;;25.12;33.63
23619;BME280;18207;32.078;34.818;2022-11-20T04:24:26;101750.25;;;25.11;33.62
23619;BME280;18207;32.078;34.818;2022-11-20T04:26:59;101748.25;;;25.12;33.79
23619;BME280;18207;32.078;34.818;2022-11-20T04:29:29;101752.25;;;25.11;33.45
23619;BME280;18207;32.078;34.818;2022-11-20T04:31:59;101759.50;;;25.12;33.65
23619;BME280;18207;32.078;34.818;2022-11-20T04:34:30;101763.63;;;25.14;33.68
23619;BME280;18207;32.078;34.818;2022-11-20T04:37:01;101758.34;;;25.13;33.61
23619;BME280;18207;32.078;34.818;2022-11-20T04:39:32;101759.97;;;25.14;33.68
23619;BME280;18207;32.078;34.818;2022-11-20T04:42:07;101761.63;;;25.15;33.95
23619;BME280;18207;32.078;34.818;2022-11-20T04:45:00;101756.38;;;25.13;33.66
23619;BME280;18207;32.078;34.818;2022-11-20T04:47:31;101762.81;;;25.14;33.79
23619;BME280;18207;32.078;34.818;2022-11-20T04:50:01;101761.63;;;25.15;33.76
23619;BME280;18207;32.078;34.818;2022-11-20T04:52:32;101762.63;;;25.19;34.05
23619;BME280;18207;32.078;34.818;2022-11-20T04:55:04;101768.63;;;25.29;34.05
23619;BME280;18207;32.078;34.818;2022-11-20T04:57:35;101767.88;;;25.41;34.13
23619;BME280;18207;32.078;34.818;2022-11-20T05:00:07;101764.09;;;25.57;34.20
23619;BME280;18207;32.078;34.818;2022-11-20T05:02:38;101765.13;;;25.73;34.40
23619;BME280;18207;32.078;34.818;2022-11-20T05:05:08;101755.22;;;25.88;34.22
23619;BME280;18207;32.078;34.818;2022-11-20T05:07:39;101755.72;;;26.01;34.48
23619;BME280;18207;32.078;34.818;2022-11-20T05:10:10;101760.34;;;26.18;34.60
23619;BME280;18207;32.078;34.818;2022-11-20T05:12:43;101766.81;;;26.30;34.67
23619;BME280;18207;32.078;34.818;2022-11-20T05:15:17;101770.06;;;26.41;34.36
23619;BME280;18207;32.078;34.818;2022-11-20T05:17:51;101769.81;;;26.46;34.18
23619;BME280;18207;32.078;34.818;2022-11-20T05:20:21;101767.13;;;26.49;34.32
23619;BME280;18207;32.078;34.818;2022-11-20T05:22:52;101767.13;;;26.49;34.27
23619;BME280;18207;32.078;34.818;2022-11-20T05:25:23;101770.78;;;26.50;34.05
23619;BME280;18207;32.078;34.818;2022-11-20T05:27:55;101770.41;;;26.51;33.98
23619;BME280;18207;32.078;34.818;2022-11-20T05:30:26;101771.25;;;26.52;33.94
23619;BME280;18207;32.078;34.818;2022-11-20T05:32:57;101780.16;;;26.54;33.92
23619;BME280;18207;32.078;34.818;2022-11-20T05:35:27;101778.66;;;26.56;33.93
23619;BME280;18207;32.078;34.818;2022-11-20T05:37:57;101786.06;;;26.61;33.92
23619;BME280;18207;32.078;34.818;2022-11-20T05:40:28;101788.31;;;26.67;33.88
23619;BME280;18207;32.078;34.818;2022-11-20T05:43:02;101781.34;;;26.77;34.10
23619;BME280;18207;32.078;34.818;2022-11-20T05:45:31;101781.47;;;26.92;34.12
23619;BME280;18207;32.078;34.818;2022-11-20T05:48:02;101789.81;;;27.12;34.25
23619;BME280;18207;32.078;34.818;2022-11-20T05:50:33;101788.50;;;27.34;34.42
23619;BME280;18207;32.078;34.818;2022-11-20T05:53:03;101781.69;;;27.62;34.48
23619;BME280;18207;32.078;34.818;2022-11-20T05:55:34;101786.56;;;27.89;34.54
23619;BME280;18207;32.078;34.818;2022-11-20T05:58:06;101786.19;;;28.18;34.70
23619;BME280;18207;32.078;34.818;2022-11-20T06:00:37;101788.16;;;28.45;34.78
23619;BME280;18207;32.078;34.818;2022-11-20T06:03:07;101788.16;;;28.75;34.60
23619;BME280;18207;32.078;34.818;2022-11-20T06:05:36;101779.53;;;29.03;34.74
23619;BME280;18207;32.078;34.818;2022-11-20T06:08:07;101778.59;;;29.30;34.60
23619;BME280;18207;32.078;34.818;2022-11-20T06:10:38;101769.03;;;29.53;34.62
23619;BME280;18207;32.078;34.818;2022-11-20T06:13:10;101774.03;;;29.78;34.57
23619;BME280;18207;32.078;34.818;2022-11-20T06:15:40;101767.97;;;29.99;34.70
23619;BME280;18207;32.078;34.818;2022-11-20T06:18:11;101772.06;;;30.20;34.56
23619;BME280;18207;32.078;34.818;2022-11-20T06:20:42;101766.41;;;30.42;34.51
23619;BME280;18207;32.078;34.818;2022-11-20T06:23:13;101755.88;;;30.65;34.34
23619;BME280;18207;32.078;34.818;2022-11-20T06:25:44;101765.56;;;30.87;34.61
23619;BME280;18207;32.078;34.818;2022-11-20T06:28:18;101761.50;;;31.10;34.49
23619;BME280;18207;32.078;34.818;2022-11-20T06:30:50;101763.03;;;31.30;34.47
23619;BME280;18207;32.078;34.818;2022-11-20T06:33:21;101761.28;;;31.51;34.28
23619;BME280;18207;32.078;34.818;2022-11-20T06:35:55;101755.84;;;31.69;33.73
23619;BME280;18207;32.078;34.818;2022-11-20T06:38:32;101749.97;;;31.84;33.70
23619;BME280;18207;32.078;34.818;2022-11-20T06:41:04;101745.25;;;31.99;33.95
23619;BME280;18207;32.078;34.818;2022-11-20T06:43:37;101740.13;;;32.11;33.35
23619;BME280;18207;32.078;34.818;2022-11-20T06:46:09;101751.25;;;32.26;33.68
23619;BME280;18207;32.078;34.818;2022-11-20T06:48:40;101739.19;;;32.40;32.98
23619;BME280;18207;32.078;34.818;2022-11-20T06:51:12;101744.69;;;32.59;32.89
23619;BME280;18207;32.078;34.818;2022-11-20T06:53:42;101739.53;;;32.75;33.08
23619;BME280;18207;32.078;34.818;2022-11-20T06:56:13;101738.41;;;32.90;33.24
23619;BME280;18207;32.078;34.818;2022-11-20T06:58:45;101731.63;;;33.08;32.68
23619;BME280;18207;32.078;34.818;2022-11-20T07:01:16;101724.03;;;33.22;33.21
23619;BME280;18207;32.078;34.818;2022-11-20T07:03:49;101729.41;;;33.38;33.14
23619;BME280;18207;32.078;34.818;2022-11-20T07:06:21;101733.53;;;33.54;33.09
23619;BME280;18207;32.078;34.818;2022-11-20T07:08:52;101728.72;;;33.69;32.29
23619;BME280;18207;32.078;34.818;2022-11-20T07:11:23;101722.28;;;33.82;32.82
23619;BME280;18207;32.078;34.818;2022-11-20T07:13:56;101721.88;;;33.98;32.35
23619;BME280;18207;32.078;34.818;2022-11-20T07:16:27;101718.69;;;34.09;32.23
23619;BME280;18207;32.078;34.818;2022-11-20T07:18:58;101712.59;;;34.21;32.39
23619;BME280;18207;32.078;34.818;2022-11-20T07:21:28;101713.84;;;34.31;31.80
23619;BME280;18207;32.078;34.818;2022-11-20T07:23:58;101706.91;;;34.39;31.43
23619;BME280;18207;32.078;34.818;2022-11-20T07:26:28;101710.56;;;34.43;31.85
23619;BME280;18207;32.078;34.818;2022-11-20T07:29:01;101713.41;;;34.46;31.02
23619;BME280;18207;32.078;34.818;2022-11-20T07:31:32;101716.69;;;34.52;31.03
23619;BME280;18207;32.078;34.818;2022-11-20T07:34:03;101706.94;;;34.60;30.89
23619;BME280;18207;32.078;34.818;2022-11-20T07:36:32;101698.34;;;34.67;30.84
23619;BME280;18207;32.078;34.818;2022-11-20T07:39:04;101686.91;;;34.74;30.59
23619;BME280;18207;32.078;34.818;2022-11-20T07:41:35;101680.78;;;34.79;30.36
23619;BME280;18207;32.078;34.818;2022-11-20T07:44:07;101677.94;;;34.82;30.75
23619;BME280;18207;32.078;34.818;2022-11-20T07:46:38;101678.72;;;34.83;30.31
23619;BME280;18207;32.078;34.818;2022-11-20T07:49:09;101662.41;;;34.83;30.10
23619;BME280;18207;32.078;34.818;2022-11-20T07:51:39;101657.09;;;34.89;30.35
23619;BME280;18207;32.078;34.818;2022-11-20T07:54:10;101667.28;;;34.96;30.12
23619;BME280;18207;32.078;34.818;2022-11-20T07:56:40;101661.56;;;35.07;30.83
23619;BME280;18207;32.078;34.818;2022-11-20T07:59:13;101663.16;;;35.22;30.31
23619;BME280;18207;32.078;34.818;2022-11-20T08:01:43;101659.41;;;35.35;30.54
23619;BME280;18207;32.078;34.818;2022-11-20T08:04:13;101656.50;;;35.53;30.42
23619;BME280;18207;32.078;34.818;2022-11-20T08:06:44;101656.00;;;35.68;30.97
23619;BME280;18207;32.078;34.818;2022-11-20T08:09:15;101657.97;;;35.82;30.44
23619;BME280;18207;32.078;34.818;2022-11-20T08:11:46;101656.66;;;35.93;30.18
23619;BME280;18207;32.078;34.818;2022-11-20T08:14:35;101639.44;;;36.00;29.50
23619;BME280;18207;32.078;34.818;2022-11-20T08:17:06;101641.06;;;36.04;29.33
23619;BME280;18207;32.078;34.818;2022-11-20T08:19:37;101637.78;;;36.06;29.41
23619;BME280;18207;32.078;34.818;2022-11-20T08:22:08;101634.50;;;36.07;29.42
23619;BME280;18207;32.078;34.818;2022-11-20T08:24:38;101635.72;;;36.06;28.91
23619;BME280;18207;32.078;34.818;2022-11-20T08:27:08;101618.16;;;36.04;28.82
23619;BME280;18207;32.078;34.818;2022-11-20T08:29:41;101625.97;;;36.00;28.08
23619;BME280;18207;32.078;34.818;2022-11-20T08:32:11;101623.09;;;35.93;28.36
23619;BME280;18207;32.078;34.818;2022-11-20T08:34:42;101618.28;;;35.83;27.80
23619;BME280;18207;32.078;34.818;2022-11-20T08:37:14;101616.31;;;35.70;27.63
23619;BME280;18207;32.078;34.818;2022-11-20T08:39:51;101610.31;;;35.54;27.19
23619;BME280;18207;32.078;34.818;2022-11-20T08:42:22;101608.72;;;35.39;26.61
23619;BME280;18207;32.078;34.818;2022-11-20T08:44:54;101591.25;;;35.23;26.81
23619;BME280;18207;32.078;34.818;2022-11-20T08:47:28;101588.06;;;35.07;26.46
23619;BME280;18207;32.078;34.818;2022-11-20T08:49:59;101598.69;;;34.96;26.42
23619;BME280;18207;32.078;34.818;2022-11-20T08:52:30;101593.00;;;34.86;26.01
23619;BME280;18207;32.078;34.818;2022-11-20T08:55:08;101596.31;;;34.74;26.29
23619;BME280;18207;32.078;34.818;2022-11-20T08:57:38;101577.19;;;34.61;26.08
23619;BME280;18207;32.078;34.818;2022-11-20T09:00:19;101581.66;;;34.48;25.85
23619;BME280;18207;32.078;34.818;2022-11-20T09:02:52;101572.72;;;34.35;25.84
23619;BME280;18207;32.078;34.818;2022-11-20T09:05:24;101567.00;;;34.21;25.70
23619;BME280;18207;32.078;34.818;2022-11-20T09:07:58;101562.53;;;34.10;25.34
23619;BME280;18207;32.078;34.818;2022-11-20T09:10:31;101548.66;;;33.98;25.19
23619;BME280;18207;32.078;34.818;2022-11-20T09:13:02;101557.22;;;33.91;25.09
23619;BME280;18207;32.078;34.818;2022-11-20T09:15:37;101539.69;;;33.86;24.94
23619;BME280;18207;32.078;34.818;2022-11-20T09:18:13;101534.38;;;33.77;25.12
23619;BME280;18207;32.078;34.818;2022-11-20T09:20:46;101535.19;;;33.71;25.47
23619;BME280;18207;32.078;34.818;2022-11-20T09:23:17;101547.41;;;33.64;25.25
23619;BME280;18207;32.078;34.818;2022-11-20T09:25:48;101524.97;;;33.56;25.15
23619;BME280;18207;32.078;34.818;2022-11-20T09:28:19;101518.44;;;33.48;25.29
23619;BME280;18207;32.078;34.818;2022-11-20T09:30:51;101514.38;;;33.42;25.58
23619;BME280;18207;32.078;34.818;2022-11-20T09:33:21;101514.34;;;33.35;25.48
23619;BME280;18207;32.078;34.818;2022-11-20T09:35:51;101506.59;;;33.29;24.84
23619;BME280;18207;32.078;34.818;2022-11-20T09:38:22;101498.88;;;33.22;25.06
23619;BME280;18207;32.078;34.818;2022-11-20T09:40:59;101500.47;;;33.16;25.28
23619;BME280;18207;32.078;34.818;2022-11-20T09:43:49;101487.38;;;33.09;25.45
23619;BME280;18207;32.078;34.818;2022-11-20T09:46:35;101482.06;;;33.00;25.26
23619;BME280;18207;32.078;34.818;2022-11-20T09:49:26;101497.13;;;32.94;25.01
23619;BME280;18207;32.078;34.818;2022-11-20T09:52:07;101496.28;;;32.86;25.52
23619;BME280;18207;32.078;34.818;2022-11-20T09:54:46;101483.25;;;32.78;25.42
23619;BME280;18207;32.078;34.818;2022-11-20T09:57:22;101479.53;;;32.71;25.59
23619;BME280;18207;32.078;34.818;2022-11-20T09:59:59;101486.84;;;32.65;25.56
23619;BME280;18207;32.078;34.818;2022-11-20T10:02:46;101477.88;;;32.59;25.62
23619;BME280;18207;32.078;34.818;2022-11-20T10:05:23;101466.81;;;32.54;25.64
23619;BME280;18207;32.078;34.818;2022-11-20T10:08:17;101474.53;;;32.50;25.55
23619;BME280;18207;32.078;34.818;2022-11-20T10:11:00;101463.13;;;32.43;25.56
23619;BME280;18207;32.078;34.818;2022-11-20T10:13:44;101460.25;;;32.36;25.65
23619;BME280;18207;32.078;34.818;2022-11-20T10:16:31;101462.66;;;32.31;25.53
23619;BME280;18207;32.078;34.818;2022-11-20T10:19:37;101461.41;;;32.25;25.55
23619;BME280;18207;32.078;34.818;2022-11-20T10:22:28;101455.69;;;32.22;25.67
23619;BME280;18207;32.078;34.818;2022-11-20T10:25:14;101443.84;;;32.16;25.17
23619;BME280;18207;32.078;34.818;2022-11-20T10:28:26;101448.31;;;32.10;25.03
23619;BME280;18207;32.078;34.818;2022-11-20T10:31:03;101436.50;;;32.08;25.32
23619;BME280;18207;32.078;34.818;2022-11-20T10:33:39;101445.41;;;32.07;25.30
23619;BME280;18207;32.078;34.818;2022-11-20T10:36:40;101426.69;;;32.02;25.29
23619;BME280;18207;32.078;34.818;2022-11-20T10:39:22;101431.16;;;32.00;25.53
23619;BME280;18207;32.078;34.818;2022-11-20T10:41:56;101419.75;;;31.96;25.46
23619;BME280;18207;32.078;34.818;2022-11-20T10:44:49;101423.38;;;31.93;25.52
23619;BME280;18207;32.078;34.818;2022-11-20T10:47:36;101418.88;;;31.89;25.63
23619;BME280;18207;32.078;34.818;2022-11-20T10:50:16;101417.66;;;31.86;25.28
23619;BME280;18207;32.078;34.818;2022-11-20T10:53:02;101410.72;;;31.84;25.77
23619;BME280;18207;32.078;34.818;2022-11-20T10:55:46;101403.81;;;31.81;25.55
23619;BME280;18207;32.078;34.818;2022-11-20T10:58:28;101398.13;;;31.81;25.56
23619;BME280;18207;32.078;34.818;2022-11-20T11:01:05;101382.25;;;31.80;25.17
23619;BME280;18207;32.078;34.818;2022-11-20T11:03:36;101387.94;;;31.80;25.32
23619;BME280;18207;32.078;34.818;2022-11-20T11:06:14;101393.63;;;31.80;25.41
23619;BME280;18207;32.078;34.818;2022-11-20T11:08:53;101369.66;;;31.78;25.66
23619;BME280;18207;32.078;34.818;2022-11-20T11:11:29;101365.19;;;31.77;25.59
23619;BME280;18207;32.078;34.818;2022-11-20T11:14:09;101364.38;;;31.76;25.41
23619;BME280;18207;32.078;34.818;2022-11-20T11:16:51;101364.75;;;31.75;25.23
23619;BME280;18207;32.078;34.818;2022-11-20T11:19:22;101370.03;;;31.73;25.43
23619;BME280;18207;32.078;34.818;2022-11-20T11:21:56;101362.34;;;31.73;25.68
23619;BME280;18207;32.078;34.818;2022-11-20T11:24:30;101366.38;;;31.72;25.27
23619;BME280;18207;32.078;34.818;2022-11-20T11:27:14;101359.06;;;31.71;25.92
23619;BME280;18207;32.078;34.818;2022-11-20T11:29:48;101368.81;;;31.70;25.84
23619;BME280;18207;32.078;34.818;2022-11-20T11:32:21;101372.84;;;31.69;25.63
23619;BME280;18207;32.078;34.818;2022-11-20T11:35:01;101374.06;;;31.68;25.86
23619;BME280;18207;32.078;34.818;2022-11-20T11:37:35;101372.44;;;31.67;25.70
23619;BME280;18207;32.078;34.818;2022-11-20T11:40:12;101375.28;;;31.67;25.54
23619;BME280;18207;32.078;34.818;2022-11-20T11:42:57;101383.41;;;31.65;25.30
23619;BME280;18207;32.078;34.818;2022-11-20T11:45:28;101376.47;;;31.63;25.40
23619;BME280;18207;32.078;34.818;2022-11-20T11:48:01;101377.28;;;31.63;25.71
23619;BME280;18207;32.078;34.818;2022-11-20T11:50:34;101375.66;;;31.62;25.64
23619;BME280;18207;32.078;34.818;2022-11-20T11:53:13;101368.34;;;31.61;25.71
23619;BME280;18207;32.078;34.818;2022-11-20T11:55:56;101368.75;;;31.60;25.24
23619;BME280;18207;32.078;34.818;2022-11-20T11:58:45;101369.13;;;31.58;25.91
23619;BME280;18207;32.078;34.818;2022-11-20T12:01:29;101360.19;;;31.56;25.46
23619;BME280;18207;32.078;34.818;2022-11-20T12:04:13;101352.88;;;31.55;25.62
23619;BME280;18207;32.078;34.818;2022-11-20T12:06:58;101354.06;;;31.54;25.90
23619;BME280;18207;32.078;34.818;2022-11-20T12:09:54;101351.59;;;31.53;25.62
23619;BME280;18207;32.078;34.818;2022-11-20T12:12:36;101348.75;;;31.53;25.32
23619;BME280;18207;32.078;34.818;2022-11-20T12:15:16;101341.84;;;31.54;25.58
23619;BME280;18207;32.078;34.818;2022-11-20T12:17:53;101341.06;;;31.53;25.49
23619;BME280;18207;32.078;34.818;2022-11-20T12:20:33;101338.22;;;31.53;25.29
23619;BME280;18207;32.078;34.818;2022-11-20T12:23:14;101336.56;;;31.52;25.49
23619;BME280;18207;32.078;34.818;2022-11-20T12:25:54;101329.25;;;31.51;25.19
23619;BME280;18207;32.078;34.818;2022-11-20T12:29:05;101334.94;;;31.48;25.74
23619;BME280;18207;32.078;34.818;2022-11-20T12:32:00;101326.81;;;31.46;25.55
23619;BME280;18207;32.078;34.818;2022-11-20T12:34:53;101328.81;;;31.46;25.28
23619;BME280;18207;32.078;34.818;2022-11-20T12:37:43;101323.53;;;31.44;25.33
23619;BME280;18207;32.078;34.818;2022-11-20T12:40:41;101326.75;;;31.43;25.29
23619;BME280;18207;32.078;34.818;2022-11-20T12:43:21;101326.75;;;31.43;25.21
23619;BME280;18207;32.078;34.818;2022-11-20T12:46:34;101331.22;;;31.40;25.55
23619;BME280;18207;32.078;34.818;2022-11-20T12:49:31;101327.56;;;31.40;25.17
23619;BME280;18207;32.078;34.818;2022-11-20T12:52:40;101314.97;;;31.37;25.70
23619;BME280;18207;32.078;34.818;2022-11-20T12:55:28;101315.78;;;31.38;25.37
23619;BME280;18207;32.078;34.818;2022-11-20T12:58:12;101304.41;;;31.38;25.40
23619;BME280;18207;32.078;34.818;2022-11-20T13:00:58;101301.97;;;31.36;25.43
23619;BME280;18207;32.078;34.818;2022-11-20T13:03:42;101308.88;;;31.35;24.99
23619;BME280;18207;32.078;34.818;2022-11-20T13:06:18;101295.03;;;31.34;25.24
23619;BME280;18207;32.078;34.818;2022-11-20T13:08:53;101297.88;;;31.34;25.34
23619;BME280;18207;32.078;34.818;2022-11-20T13:11:35;101295.88;;;31.34;25.54
23619;BME280;18207;32.078;34.818;2022-11-20T13:14:29;101305.59;;;31.33;24.97
23619;BME280;18207;32.078;34.818;2022-11-20T13:17:11;101298.28;;;31.33;25.34
23619;BME280;18207;32.078;34.818;2022-11-20T13:19:56;101290.97;;;31.32;25.12
23619;BME280;18207;32.078;34.818;2022-11-20T13:22:42;101290.16;;;31.31;24.83